createdAt,value
2018-07-28T00:02:07.236Z,99445.67
2018-07-28T00:04:40.451Z,99438.73
2018-07-28T00:07:07.803Z,99440.41
2018-07-28T00:09:34.837Z,99442.58
2018-07-28T00:12:02.003Z,99440.46
2018-07-28T00:14:30.968Z,99435.92
2018-07-28T00:16:58.754Z,99435.42
2018-07-28T00:19:25.850Z,99432.83
2018-07-28T00:21:52.928Z,99434.36
2018-07-28T00:24:20.359Z,99429.98
2018-07-28T00:26:49.176Z,99428.67
2018-07-28T00:29:19.820Z,99424.53
2018-07-28T00:31:49.861Z,99424.75
2018-07-28T00:34:17.022Z,99420.73
2018-07-28T00:36:44.126Z,99422.92
2018-07-28T00:39:13.013Z,99421.89
2018-07-28T00:41:43.155Z,99418.16
2018-07-28T00:44:11.221Z,99414.70
2018-07-28T00:46:39.664Z,99411.73
2018-07-28T00:49:08.674Z,99416.31
2018-07-28T00:51:37.698Z,99412.43
2018-07-28T00:54:04.776Z,99410.46
2018-07-28T00:56:32.135Z,99411.39
2018-07-28T00:58:59.341Z,99399.13
2018-07-28T01:01:27.270Z,99398.42
2018-07-28T01:03:55.260Z,99400.33
2018-07-28T01:06:22.408Z,99394.41
2018-07-28T01:08:49.694Z,99393.47
2018-07-28T01:11:18.691Z,99391.02
2018-07-28T01:13:46.284Z,99394.97
2018-07-28T01:16:15.299Z,99392.38
2018-07-28T01:18:43.416Z,99384.53
2018-07-28T01:21:11.620Z,99387.04
2018-07-28T01:23:40.805Z,99388.42
2018-07-28T01:26:09.913Z,99384.55
2018-07-28T01:28:42.711Z,99393.70
2018-07-28T01:31:09.950Z,99391.94
2018-07-28T01:33:37.964Z,99392.53
2018-07-28T01:36:05.061Z,99386.45
2018-07-28T01:38:32.100Z,99381.55
2018-07-28T01:40:59.276Z,99385.56
2018-07-28T01:43:28.252Z,99379.53
2018-07-28T01:45:55.294Z,99381.60
2018-07-28T01:48:23.209Z,99382.69
2018-07-28T01:50:51.313Z,99382.52
2018-07-28T01:53:19.718Z,99371.42
2018-07-28T01:55:48.943Z,99374.08
2018-07-28T01:58:20.644Z,99374.83
2018-07-28T02:00:47.901Z,99373.28
2018-07-28T02:03:15.231Z,99370.81
2018-07-28T02:05:42.348Z,99375.72
2018-07-28T02:08:11.255Z,99373.17
2018-07-28T02:10:40.215Z,99372.71
2018-07-28T02:13:08.295Z,99368.92
2018-07-28T02:15:36.316Z,99370.50
2018-07-28T02:18:04.312Z,99362.09
2018-07-28T02:20:31.400Z,99364.81
2018-07-28T02:22:59.267Z,99356.58
2018-07-28T02:25:26.524Z,99360.30
2018-07-28T02:27:53.952Z,99363.66
2018-07-28T02:30:22.042Z,99360.45
2018-07-28T02:32:49.479Z,99354.83
2018-07-28T02:35:16.641Z,99361.09
2018-07-28T02:37:43.710Z,99363.36
2018-07-28T02:40:10.774Z,99361.34
2018-07-28T02:42:38.889Z,99367.60
2018-07-28T02:45:05.960Z,99370.20
2018-07-28T02:47:33.018Z,99382.09
2018-07-28T02:50:00.798Z,99393.36
2018-07-28T02:52:27.926Z,99397.33
2018-07-28T02:54:56.848Z,99388.38
2018-07-28T02:57:26.962Z,99384.20
2018-07-28T02:59:54.844Z,99401.86
2018-07-28T03:02:21.987Z,99402.08
2018-07-28T03:04:50.104Z,99397.64
2018-07-28T03:07:17.191Z,99405.49
2018-07-28T03:09:44.252Z,99407.16
2018-07-28T03:12:11.276Z,99393.93
2018-07-28T03:14:38.458Z,99393.08
2018-07-28T03:17:05.621Z,99396.20
2018-07-28T03:19:32.872Z,99394.45
2018-07-28T03:22:03.933Z,99390.64
2018-07-28T03:24:31.039Z,99383.98
2018-07-28T03:26:58.153Z,99384.22
2018-07-28T03:29:25.245Z,99385.95
2018-07-28T03:31:52.321Z,99390.87
2018-07-28T03:34:20.186Z,99389.27
2018-07-28T03:36:47.296Z,99377.98
2018-07-28T03:39:18.166Z,99375.53
2018-07-28T03:41:45.752Z,99367.38
2018-07-28T03:44:12.869Z,99363.58
2018-07-28T03:46:43.742Z,99359.37
2018-07-28T03:49:10.878Z,99365.91
2018-07-28T03:51:40.846Z,99366.63
2018-07-28T03:54:08.084Z,99370.02
2018-07-28T03:56:35.243Z,99361.89
2018-07-28T03:59:02.329Z,99363.81
2018-07-28T04:01:29.383Z,99361.66
2018-07-28T04:03:57.228Z,99363.33
2018-07-28T04:06:24.360Z,99368.52
2018-07-28T04:08:51.417Z,99368.20
2018-07-28T04:11:18.542Z,99365.75
2018-07-28T04:13:48.615Z,99379.73
2018-07-28T04:16:19.564Z,99381.29
2018-07-28T04:18:52.762Z,99395.38
2018-07-28T04:21:20.810Z,99430.19
2018-07-28T04:23:47.899Z,99404.36
2018-07-28T04:26:15.113Z,99390.87
2018-07-28T04:28:43.785Z,99418.91
2018-07-28T04:31:17.241Z,99401.94
2018-07-28T04:33:44.360Z,99391.52
2018-07-28T04:36:13.274Z,99402.93
2018-07-28T04:38:41.274Z,99385.72
2018-07-28T04:41:08.348Z,99399.22
2018-07-28T04:43:35.419Z,99365.05
2018-07-28T04:46:03.527Z,99364.25
2018-07-28T04:48:32.335Z,99401.46
2018-07-28T04:50:59.418Z,99385.52
2018-07-28T04:53:26.524Z,99361.16
2018-07-28T04:55:54.577Z,99396.26
2018-07-28T04:58:21.652Z,99374.22
2018-07-28T05:00:52.144Z,99353.61
2018-07-28T05:03:19.280Z,99380.29
2018-07-28T05:05:46.390Z,99380.52
2018-07-28T05:08:13.442Z,99354.90
2018-07-28T05:10:40.753Z,99365.81
2018-07-28T05:13:08.932Z,99364.64
2018-07-28T05:15:36.826Z,99336.80
2018-07-28T05:18:08.548Z,99336.53
2018-07-28T05:20:35.646Z,99342.23
2018-07-28T05:23:02.790Z,99344.05
2018-07-28T05:25:31.762Z,99330.91
2018-07-28T05:27:59.857Z,99335.48
2018-07-28T05:30:27.869Z,99339.46
2018-07-28T05:32:55.044Z,99340.55
2018-07-28T05:35:22.210Z,99348.30
2018-07-28T05:37:49.952Z,99365.84
2018-07-28T05:40:17.152Z,99366.66
2018-07-28T05:42:48.349Z,99374.83
2018-07-28T05:45:17.316Z,99384.22
2018-07-28T05:47:45.370Z,99376.09
2018-07-28T05:50:12.518Z,99370.22
2018-07-28T05:52:44.202Z,99377.41
2018-07-28T05:55:17.417Z,99402.00
2018-07-28T05:57:45.461Z,99429.52
2018-07-28T06:00:15.568Z,99494.23
2018-07-28T06:02:42.670Z,99516.19
2018-07-28T06:05:09.739Z,99503.95
2018-07-28T06:07:36.900Z,99486.62
2018-07-28T06:10:04.140Z,99497.97
2018-07-28T06:12:31.451Z,99485.30
2018-07-28T06:14:59.496Z,99498.09
2018-07-28T06:17:29.589Z,99502.85
2018-07-28T06:19:57.273Z,99505.78
2018-07-28T06:22:24.332Z,99506.23
2018-07-28T06:24:51.400Z,99508.04
2018-07-28T06:27:18.544Z,99506.42
2018-07-28T06:29:45.637Z,99506.63
2018-07-28T06:32:12.745Z,99504.99
2018-07-28T06:34:41.314Z,99508.25
2018-07-28T06:37:09.491Z,99506.92
2018-07-28T06:39:36.725Z,99508.25
2018-07-28T06:42:06.793Z,99511.03
2018-07-28T06:44:33.924Z,99507.31
2018-07-28T06:47:01.155Z,99502.68
2018-07-28T06:49:28.276Z,99497.41
2018-07-28T06:51:55.982Z,99499.86
2018-07-28T06:54:23.964Z,99502.52
2018-07-28T06:56:52.960Z,99497.40
2018-07-28T06:59:20.094Z,99498.25
2018-07-28T07:01:53.060Z,99499.58
2018-07-28T07:04:20.872Z,99497.18
2018-07-28T07:06:53.975Z,99496.95
2018-07-28T07:09:21.972Z,99504.27
2018-07-28T07:11:49.020Z,99507.39
2018-07-28T07:14:16.123Z,99511.01
2018-07-28T07:16:47.085Z,99514.34
2018-07-28T07:19:14.277Z,99509.73
2018-07-28T07:21:42.989Z,99495.11
2018-07-28T07:24:10.228Z,99487.89
2018-07-28T07:26:38.417Z,99486.89
2018-07-28T07:29:05.661Z,99496.47
2018-07-28T07:31:34.817Z,99467.09
2018-07-28T07:34:03.947Z,99464.02
2018-07-28T07:36:31.042Z,99480.84
2018-07-28T07:38:58.076Z,99490.33
2018-07-28T07:41:25.186Z,99480.27
2018-07-28T07:43:52.487Z,99466.55
2018-07-28T07:46:19.616Z,99475.17
2018-07-28T07:48:46.718Z,99482.92
2018-07-28T07:51:13.781Z,99492.78
2018-07-28T07:53:42.581Z,99470.66
2018-07-28T07:56:09.725Z,99478.16
2018-07-28T07:58:38.446Z,99482.16
2018-07-28T08:01:07.608Z,99464.48
2018-07-28T08:03:34.777Z,99460.73
2018-07-28T08:06:01.948Z,99444.00
2018-07-28T08:08:29.007Z,99464.50
2018-07-28T08:10:56.088Z,99465.06
2018-07-28T08:13:25.046Z,99461.03
2018-07-28T08:15:52.936Z,99460.98
2018-07-28T08:18:23.123Z,99458.59
2018-07-28T08:20:51.132Z,99455.64
2018-07-28T08:23:18.961Z,99449.66
2018-07-28T08:25:46.022Z,99454.55
2018-07-28T08:28:13.341Z,99452.59
2018-07-28T08:30:41.941Z,99463.84
2018-07-28T08:33:08.984Z,99473.91
2018-07-28T08:35:36.047Z,99477.84
2018-07-28T08:38:04.555Z,99485.09
2018-07-28T08:40:32.430Z,99499.66
2018-07-28T08:42:59.618Z,99495.44
2018-07-28T08:45:26.750Z,99504.78
2018-07-28T08:47:53.895Z,99506.66
2018-07-28T08:50:21.134Z,99506.98
2018-07-28T08:52:48.255Z,99502.10
2018-07-28T08:55:15.395Z,99506.47
2018-07-28T08:57:42.599Z,99513.18
2018-07-28T09:00:10.617Z,99512.14
2018-07-28T09:02:38.452Z,99518.21
2018-07-28T09:05:07.487Z,99521.77
2018-07-28T09:07:34.644Z,99516.17
2018-07-28T09:10:01.773Z,99518.38
2018-07-28T09:12:29.021Z,99514.81
2018-07-28T09:14:57.004Z,99511.08
2018-07-28T09:17:25.062Z,99511.53
2018-07-28T09:19:52.167Z,99516.36
2018-07-28T09:22:21.112Z,99520.68
2018-07-28T09:24:49.977Z,99532.22
2018-07-28T09:27:17.035Z,99535.95
2018-07-28T09:29:44.100Z,99541.20
2018-07-28T09:32:11.245Z,99540.05
2018-07-28T09:34:39.024Z,99544.98
2018-07-28T09:37:07.060Z,99546.17
2018-07-28T09:39:34.221Z,99536.42
2018-07-28T09:42:02.024Z,99531.94
2018-07-28T09:44:29.150Z,99536.67
2018-07-28T09:46:56.263Z,99543.72
2018-07-28T09:49:23.401Z,99544.91
2018-07-28T09:51:51.291Z,99552.91
2018-07-28T09:54:18.361Z,99558.05
2018-07-28T09:56:45.496Z,99559.42
2018-07-28T09:59:12.682Z,99562.11
2018-07-28T10:01:39.850Z,99565.86
2018-07-28T10:04:08.017Z,99563.96
2018-07-28T10:06:35.076Z,99566.53
2018-07-28T10:09:02.144Z,99572.94
2018-07-28T10:11:29.219Z,99566.34
2018-07-28T10:13:56.362Z,99565.08
2018-07-28T10:16:23.666Z,99560.16
2018-07-28T10:18:50.655Z,99560.95
2018-07-28T10:21:17.898Z,99571.20
2018-07-28T10:23:47.034Z,99572.26
2018-07-28T10:26:14.197Z,99571.34
2018-07-28T10:28:41.290Z,99576.61
2018-07-28T10:31:12.138Z,99590.13
2018-07-28T10:33:40.296Z,99589.02
2018-07-28T10:36:07.561Z,99596.39
2018-07-28T10:38:34.629Z,99584.41
2018-07-28T10:41:01.775Z,99587.63
2018-07-28T10:43:28.844Z,99583.14
2018-07-28T10:45:55.962Z,99577.53
2018-07-28T10:48:25.065Z,99572.63
2018-07-28T10:50:53.424Z,99577.79
2018-07-28T10:53:22.080Z,99577.00
2018-07-28T10:55:49.211Z,99581.23
2018-07-28T10:58:16.298Z,99580.25
2018-07-28T11:00:44.380Z,99583.96
2018-07-28T11:03:11.447Z,99592.57
2018-07-28T11:05:38.547Z,99596.91
2018-07-28T11:08:06.671Z,99575.41
2018-07-28T11:10:34.535Z,99579.55
2018-07-28T11:13:02.516Z,99584.58
2018-07-28T11:15:29.601Z,99582.89
2018-07-28T11:17:56.717Z,99582.81
2018-07-28T11:20:24.871Z,99591.89
2018-07-28T11:22:52.542Z,99599.30
2018-07-28T11:25:19.696Z,99595.94
2018-07-28T11:27:46.885Z,99601.36
2018-07-28T11:30:13.966Z,99605.36
2018-07-28T11:32:52.748Z,99592.41
2018-07-28T11:35:31.517Z,99595.26
2018-07-28T11:38:20.620Z,99593.30
2018-07-28T11:40:59.432Z,99598.82
2018-07-28T11:43:38.875Z,99608.02
2018-07-28T11:46:05.967Z,99600.42
2018-07-28T11:48:33.143Z,99596.65
2018-07-28T11:51:00.210Z,99598.09
2018-07-28T11:53:27.277Z,99595.03
2018-07-28T11:55:54.369Z,99603.81
2018-07-28T11:58:22.114Z,99591.02
2018-07-28T12:00:50.147Z,99598.23
2018-07-28T12:03:17.229Z,99603.19
2018-07-28T12:05:46.321Z,99602.73
2018-07-28T12:08:13.351Z,99607.02
2018-07-28T12:10:40.486Z,99618.76
2018-07-28T12:13:07.588Z,99612.03
2018-07-28T12:15:34.862Z,99615.06
2018-07-28T12:18:05.688Z,99605.13
2018-07-28T12:20:32.751Z,99602.61
2018-07-28T12:23:00.856Z,99613.00
2018-07-28T12:25:28.025Z,99613.79
2018-07-28T12:27:55.108Z,99615.94
2018-07-28T12:30:22.158Z,99608.26
2018-07-28T12:32:49.284Z,99613.17
2018-07-28T12:35:17.139Z,99606.75
2018-07-28T12:37:44.380Z,99605.69
2018-07-28T12:40:11.485Z,99601.06
2018-07-28T12:42:38.626Z,99585.33
2018-07-28T12:45:05.879Z,99586.73
2018-07-28T12:47:33.040Z,99590.18
2018-07-28T12:50:00.224Z,99588.72
2018-07-28T12:52:27.303Z,99594.69
2018-07-28T12:54:57.822Z,99600.45
2018-07-28T12:57:25.407Z,99587.11
2018-07-28T12:59:54.235Z,99587.17
2018-07-28T13:02:21.326Z,99584.44
2018-07-28T13:04:48.500Z,99591.84
2018-07-28T13:07:15.544Z,99599.16
2018-07-28T13:09:42.630Z,99617.17
2018-07-28T13:12:09.700Z,99609.31
2018-07-28T13:14:38.621Z,99607.49
2018-07-28T13:17:05.718Z,99615.73
2018-07-28T13:19:32.788Z,99617.38
2018-07-28T13:21:59.973Z,99618.88
2018-07-28T13:24:27.597Z,99608.14
2018-07-28T13:26:54.758Z,99614.86
2018-07-28T13:29:23.674Z,99617.23
2018-07-28T13:31:50.786Z,99627.76
2018-07-28T13:34:17.873Z,99631.00
2018-07-28T13:36:45.583Z,99632.97
2018-07-28T13:39:12.764Z,99630.95
2018-07-28T13:41:48.206Z,99632.79
2018-07-28T13:44:15.254Z,99650.64
2018-07-28T13:46:45.569Z,99640.64
2018-07-28T13:49:12.666Z,99636.42
2018-07-28T13:51:39.776Z,99640.80
2018-07-28T13:54:06.928Z,99631.28
2018-07-28T13:56:34.059Z,99620.63
2018-07-28T13:59:01.715Z,99620.99
2018-07-28T14:01:37.607Z,99611.41
2018-07-28T14:04:05.678Z,99616.89
2018-07-28T14:06:32.804Z,99620.45
2018-07-28T14:09:00.731Z,99629.03
2018-07-28T14:11:27.828Z,99626.23
2018-07-28T14:13:54.917Z,99620.81
2018-07-28T14:16:21.943Z,99620.84
2018-07-28T14:18:49.036Z,99620.65
2018-07-28T14:21:20.789Z,99628.60
2018-07-28T14:23:48.805Z,99627.66
2018-07-28T14:26:15.904Z,99633.92
2018-07-28T14:28:42.967Z,99628.45
2018-07-28T14:31:10.045Z,99624.42
2018-07-28T14:33:37.241Z,99620.37
2018-07-28T14:36:10.631Z,99628.15
2018-07-28T14:38:37.757Z,99620.33
2018-07-28T14:41:06.775Z,99628.70
2018-07-28T14:43:33.919Z,99636.07
2018-07-28T14:46:07.351Z,99639.48
2018-07-28T14:48:41.626Z,99635.24
2018-07-28T14:51:09.669Z,99641.69
2018-07-28T14:53:36.808Z,99651.19
2018-07-28T14:56:03.995Z,99651.02
2018-07-28T14:58:33.135Z,99652.52
2018-07-28T15:01:01.171Z,99650.14
2018-07-28T15:03:28.333Z,99652.31
2018-07-28T15:06:01.696Z,99657.56
2018-07-28T15:08:29.896Z,99646.78
2018-07-28T15:11:01.037Z,99644.22
2018-07-28T15:13:29.140Z,99636.72
2018-07-28T15:15:57.182Z,99641.95
2018-07-28T15:18:41.186Z,99653.48
2018-07-28T15:21:09.292Z,99644.42
2018-07-28T15:23:36.410Z,99651.77
2018-07-28T15:26:03.635Z,99655.58
2018-07-28T15:28:31.149Z,99653.77
2018-07-28T15:30:58.409Z,99659.57
2018-07-28T15:33:26.515Z,99657.39
2018-07-28T15:35:54.339Z,99654.38
2018-07-28T15:38:22.368Z,99657.02
2018-07-28T15:40:49.427Z,99661.41
2018-07-28T15:43:17.607Z,99662.34
2018-07-28T15:45:47.887Z,99665.27
2018-07-28T15:48:16.031Z,99677.06
2018-07-28T15:50:43.801Z,99674.39
2018-07-28T15:53:10.978Z,99673.21
2018-07-28T15:55:38.267Z,99673.30
2018-07-28T15:58:05.495Z,99677.50
2018-07-28T16:00:32.698Z,99679.63
2018-07-28T16:02:59.844Z,99674.02
2018-07-28T16:05:30.011Z,99673.30
2018-07-28T16:10:27.328Z,99684.44
2018-07-28T16:12:54.394Z,99683.86
2018-07-28T16:15:21.884Z,99682.34
2018-07-28T16:17:50.877Z,99676.10
2018-07-28T16:20:17.937Z,99682.52
2018-07-28T16:22:44.989Z,99688.39
2018-07-28T16:25:12.303Z,99699.45
2018-07-28T16:27:39.499Z,99694.06
2018-07-28T16:30:07.907Z,99703.39
2018-07-28T16:32:35.701Z,99706.74
2018-07-28T16:35:07.059Z,99706.73
2018-07-28T16:37:35.970Z,99700.88
2018-07-28T16:40:03.280Z,99701.16
2018-07-28T16:42:31.390Z,99702.94
2018-07-28T16:45:00.516Z,99706.27
2018-07-28T16:47:30.626Z,99711.83
2018-07-28T16:49:57.728Z,99702.01
2018-07-28T16:52:24.981Z,99707.56
2018-07-28T16:54:52.407Z,99717.86
2018-07-28T16:57:20.842Z,99721.59
2018-07-28T16:59:47.952Z,99730.67
2018-07-28T17:02:16.910Z,99728.55
2018-07-28T17:04:44.994Z,99733.63
2018-07-28T17:07:12.182Z,99738.16
2018-07-28T17:09:42.283Z,99737.09
2018-07-28T17:12:09.407Z,99739.48
2018-07-28T17:14:36.547Z,99749.31
2018-07-28T17:17:03.886Z,99753.31
2018-07-28T17:19:31.193Z,99753.34
2018-07-28T17:21:58.805Z,99756.01
2018-07-28T17:24:29.868Z,99763.81
2018-07-28T17:27:04.329Z,99763.25
2018-07-28T17:29:35.514Z,99766.75
2018-07-28T17:32:02.644Z,99766.22
2018-07-28T17:34:29.827Z,99771.55
2018-07-28T17:36:57.900Z,99770.67
2018-07-28T17:39:25.917Z,99779.83
2018-07-28T17:41:53.920Z,99777.70
2018-07-28T17:44:24.131Z,99782.51
2018-07-28T17:46:51.197Z,99786.76
2018-07-28T17:49:18.310Z,99784.94
2018-07-28T17:51:45.381Z,99792.14
2018-07-28T17:54:13.414Z,99795.37
2018-07-28T17:56:40.623Z,99801.24
2018-07-28T17:59:08.666Z,99809.27
2018-07-28T18:01:35.746Z,99803.91
2018-07-28T18:04:03.014Z,99808.95
2018-07-28T18:06:33.136Z,99808.19
2018-07-28T18:09:04.903Z,99813.40
2018-07-28T18:11:32.165Z,99804.74
2018-07-28T18:13:59.234Z,99805.93
2018-07-28T18:16:27.428Z,99806.80
2018-07-28T18:18:55.483Z,99812.36
2018-07-28T18:21:22.758Z,99816.62
2018-07-28T18:23:49.992Z,99820.74
2018-07-28T18:26:17.156Z,99821.83
2018-07-28T18:28:50.401Z,99818.86
2018-07-28T18:31:19.287Z,99826.61
2018-07-28T18:33:46.540Z,99831.42
2018-07-28T18:36:14.487Z,99829.80
2018-07-28T18:38:41.701Z,99832.73
2018-07-28T18:41:08.984Z,99841.03
2018-07-28T18:43:40.316Z,99840.41
2018-07-28T18:46:09.391Z,99847.73
2018-07-28T18:48:37.424Z,99848.78
2018-07-28T18:51:05.652Z,99849.88
2018-07-28T18:53:32.910Z,99858.44
2018-07-28T18:56:00.268Z,99869.41
2018-07-28T18:58:27.399Z,99875.18
2018-07-28T19:00:54.663Z,99877.81
2018-07-28T19:03:21.765Z,99879.81
2018-07-28T19:05:48.822Z,99886.19
2018-07-28T19:08:15.948Z,99894.58
2018-07-28T19:10:43.212Z,99896.31
2018-07-28T19:13:16.515Z,99895.53
2018-07-28T19:15:44.391Z,99905.66
2018-07-28T19:18:17.182Z,99912.14
2018-07-28T19:20:44.418Z,99913.34
2018-07-28T19:23:17.103Z,99916.42
2018-07-28T19:25:44.171Z,99921.84
2018-07-28T19:28:17.060Z,99921.48
2018-07-28T19:30:44.102Z,99923.85
2018-07-28T19:33:11.241Z,99929.14
2018-07-28T19:35:44.189Z,99931.47
2018-07-28T19:38:11.244Z,99937.16
2018-07-28T19:40:38.335Z,99945.30
2018-07-28T19:43:05.388Z,99947.13
2018-07-28T19:45:32.440Z,99945.35
2018-07-28T19:47:59.621Z,99954.77
2018-07-28T19:50:26.726Z,99960.03
2018-07-28T19:52:53.892Z,99952.44
2018-07-28T19:55:20.949Z,99960.84
2018-07-28T19:57:48.093Z,99964.25
2018-07-28T20:00:15.203Z,99966.29
2018-07-28T20:02:42.447Z,99968.47
2018-07-28T20:05:09.634Z,99971.30
2018-07-28T20:07:37.802Z,99978.02
2018-07-28T20:10:05.950Z,99973.48
2018-07-28T20:12:33.009Z,99978.20
2018-07-28T20:15:00.214Z,99979.21
2018-07-28T20:17:27.284Z,99982.16
2018-07-28T20:19:54.957Z,99984.18
2018-07-28T20:22:22.021Z,99986.61
2018-07-28T20:24:49.094Z,99992.58
2018-07-28T20:27:16.288Z,99991.94
2018-07-28T20:29:43.298Z,99986.54
2018-07-28T20:32:10.409Z,99990.40
2018-07-28T20:34:37.904Z,99989.71
2018-07-28T20:37:05.083Z,99997.02
2018-07-28T20:39:32.305Z,99997.41
2018-07-28T20:42:00.281Z,99997.22
2018-07-28T20:44:28.439Z,99998.94
2018-07-28T20:46:55.669Z,99994.48
2018-07-28T20:49:22.741Z,99992.02
2018-07-28T20:51:49.903Z,99999.70
2018-07-28T20:54:17.009Z,100001.21
2018-07-28T20:56:44.014Z,100005.43
2018-07-28T20:59:11.033Z,100007.95
2018-07-28T21:01:38.017Z,100009.08
2018-07-28T21:04:05.140Z,100008.03
2018-07-28T21:06:32.148Z,100013.55
2018-07-28T21:08:59.148Z,100021.68
2018-07-28T21:11:26.118Z,100021.00
2018-07-28T21:13:53.162Z,100019.60
2018-07-28T21:16:20.226Z,100024.63
2018-07-28T21:18:47.199Z,100023.98
2018-07-28T21:21:14.177Z,100022.30
2018-07-28T21:23:41.185Z,100020.59
2018-07-28T21:26:08.220Z,100022.63
2018-07-28T21:28:35.212Z,100021.17
2018-07-28T21:31:02.192Z,100017.33
2018-07-28T21:33:29.440Z,100019.86
2018-07-28T21:35:56.451Z,100029.13
2018-07-28T21:38:23.433Z,100031.13
2018-07-28T21:40:50.438Z,100033.72
2018-07-28T21:43:17.676Z,100034.85
2018-07-28T21:45:44.680Z,100032.63
2018-07-28T21:48:11.689Z,100029.55
2018-07-28T21:50:38.725Z,100029.33
2018-07-28T21:53:05.707Z,100036.42
2018-07-28T21:55:32.841Z,100045.51
2018-07-28T21:57:59.815Z,100039.70
2018-07-28T22:00:30.017Z,100043.38
2018-07-28T22:02:57.017Z,100050.44
2018-07-28T22:05:24.026Z,100048.33
2018-07-28T22:07:51.319Z,100048.91
2018-07-28T22:10:18.319Z,100050.02
2018-07-28T22:12:45.284Z,100049.80
2018-07-28T22:15:12.261Z,100046.98
2018-07-28T22:17:39.288Z,100049.70
2018-07-28T22:20:06.277Z,100047.37
2018-07-28T22:22:33.245Z,100052.58
2018-07-28T22:25:00.223Z,100055.09
2018-07-28T22:27:27.264Z,100054.27
2018-07-28T22:29:54.232Z,100056.56
2018-07-28T22:32:21.243Z,100044.45
2018-07-28T22:34:48.236Z,100056.56
2018-07-28T22:37:15.205Z,100046.20
2018-07-28T22:39:42.197Z,100047.14
2018-07-28T22:42:09.180Z,100050.37
2018-07-28T22:44:36.172Z,100063.85
2018-07-28T22:47:03.241Z,100059.81
2018-07-28T22:49:30.244Z,100063.63
2018-07-28T22:51:57.377Z,100064.69
2018-07-28T22:54:24.425Z,100058.73
2018-07-28T22:56:51.477Z,100064.12
2018-07-28T22:59:18.449Z,100062.66
2018-07-28T23:01:45.421Z,100063.02
2018-07-28T23:04:12.408Z,100061.99
2018-07-28T23:06:39.384Z,100065.39
2018-07-28T23:09:07.990Z,100066.59
2018-07-28T23:11:35.047Z,100066.27
2018-07-28T23:14:02.164Z,100063.73
2018-07-28T23:16:29.143Z,100064.03
2018-07-28T23:18:56.118Z,100063.55
2018-07-28T23:21:23.144Z,100061.64
2018-07-28T23:23:50.118Z,100059.00
2018-07-28T23:26:17.084Z,100059.30
2018-07-28T23:28:44.076Z,100059.00
2018-07-28T23:31:11.190Z,100066.89
2018-07-28T23:33:38.168Z,100061.75
2018-07-28T23:36:05.170Z,100061.16
2018-07-28T23:38:32.169Z,100061.61
2018-07-28T23:40:59.156Z,100062.09
2018-07-28T23:43:26.153Z,100059.45
2018-07-28T23:45:53.165Z,100070.02
2018-07-28T23:48:23.457Z,100071.85
2018-07-28T23:50:50.418Z,100076.73
2018-07-28T23:53:17.756Z,100086.64
2018-07-28T23:55:44.729Z,100083.78
2018-07-28T23:58:11.701Z,100078.06
